sensor_id;sensor_type;location;lat;lon;timestamp;P1;durP1;ratioP1;P2;durP2;ratioP2
18574;SDS011;9417;16.484;102.872;2023-02-28T00:00:33;39.28;;;25.42;;
18574;SDS011;9417;16.484;102.872;2023-02-28T00:02:41;37.80;;;23.55;;
18574;SDS011;9417;16.484;102.872;2023-02-28T00:04:48;45.60;;;26.02;;
18574;SDS011;9417;16.484;102.872;2023-02-28T00:06:56;39.58;;;25.35;;
18574;SDS011;9417;16.484;102.872;2023-02-28T00:09:05;37.95;;;25.08;;
18574;SDS011;9417;16.484;102.872;2023-02-28T00:11:12;41.72;;;25.35;;
18574;SDS011;9417;16.484;102.872;2023-02-28T00:13:20;36.13;;;23.90;;
18574;SDS011;9417;16.484;102.872;2023-02-28T00:15:27;38.75;;;24.15;;
18574;SDS011;9417;16.484;102.872;2023-02-28T00:17:34;36.38;;;23.90;;
18574;SDS011;9417;16.484;102.872;2023-02-28T00:19:41;34.30;;;22.80;;
18574;SDS011;9417;16.484;102.872;2023-02-28T00:21:48;39.63;;;22.83;;
18574;SDS011;9417;16.484;102.872;2023-02-28T00:23:55;38.10;;;23.60;;
18574;SDS011;9417;16.484;102.872;2023-02-28T00:26:04;37.13;;;22.48;;
18574;SDS011;9417;16.484;102.872;2023-02-28T00:28:11;35.83;;;22.08;;
18574;SDS011;9417;16.484;102.872;2023-02-28T00:30:19;33.90;;;21.70;;
18574;SDS011;9417;16.484;102.872;2023-02-28T00:32:27;37.28;;;22.40;;
18574;SDS011;9417;16.484;102.872;2023-02-28T00:34:35;35.90;;;23.08;;
18574;SDS011;9417;16.484;102.872;2023-02-28T00:36:43;42.15;;;23.80;;
18574;SDS011;9417;16.484;102.872;2023-02-28T00:38:53;41.72;;;24.27;;
18574;SDS011;9417;16.484;102.872;2023-02-28T00:41:04;39.08;;;24.08;;
18574;SDS011;9417;16.484;102.872;2023-02-28T00:43:11;37.17;;;23.92;;
18574;SDS011;9417;16.484;102.872;2023-02-28T00:45:19;38.50;;;24.08;;
18574;SDS011;9417;16.484;102.872;2023-02-28T00:47:26;40.35;;;24.77;;
18574;SDS011;9417;16.484;102.872;2023-02-28T00:49:34;43.75;;;25.33;;
18574;SDS011;9417;16.484;102.872;2023-02-28T00:51:41;44.50;;;27.50;;
18574;SDS011;9417;16.484;102.872;2023-02-28T00:53:48;52.28;;;29.58;;
18574;SDS011;9417;16.484;102.872;2023-02-28T00:55:55;55.30;;;31.65;;
18574;SDS011;9417;16.484;102.872;2023-02-28T00:58:04;57.90;;;32.55;;
18574;SDS011;9417;16.484;102.872;2023-02-28T01:00:11;55.25;;;31.67;;
18574;SDS011;9417;16.484;102.872;2023-02-28T01:02:19;58.90;;;30.98;;
18574;SDS011;9417;16.484;102.872;2023-02-28T01:04:27;47.22;;;27.33;;
18574;SDS011;9417;16.484;102.872;2023-02-28T01:06:36;44.78;;;25.52;;
18574;SDS011;9417;16.484;102.872;2023-02-28T01:08:45;47.42;;;26.77;;
18574;SDS011;9417;16.484;102.872;2023-02-28T01:10:52;42.58;;;24.58;;
18574;SDS011;9417;16.484;102.872;2023-02-28T01:12:59;40.00;;;22.98;;
18574;SDS011;9417;16.484;102.872;2023-02-28T01:15:09;42.78;;;23.23;;
18574;SDS011;9417;16.484;102.872;2023-02-28T01:17:16;40.20;;;22.40;;
18574;SDS011;9417;16.484;102.872;2023-02-28T01:19:24;34.60;;;21.52;;
18574;SDS011;9417;16.484;102.872;2023-02-28T01:21:31;35.95;;;21.95;;
18574;SDS011;9417;16.484;102.872;2023-02-28T01:23:38;35.30;;;22.25;;
18574;SDS011;9417;16.484;102.872;2023-02-28T01:25:46;33.10;;;18.42;;
18574;SDS011;9417;16.484;102.872;2023-02-28T01:27:53;32.50;;;18.50;;
18574;SDS011;9417;16.484;102.872;2023-02-28T01:30:01;31.52;;;18.30;;
18574;SDS011;9417;16.484;102.872;2023-02-28T01:32:11;30.40;;;17.00;;
18574;SDS011;9417;16.484;102.872;2023-02-28T01:34:18;28.40;;;16.25;;
18574;SDS011;9417;16.484;102.872;2023-02-28T01:36:26;28.23;;;15.68;;
18574;SDS011;9417;16.484;102.872;2023-02-28T01:38:33;23.65;;;14.60;;
18574;SDS011;9417;16.484;102.872;2023-02-28T01:40:40;24.63;;;14.88;;
18574;SDS011;9417;16.484;102.872;2023-02-28T01:42:47;25.52;;;15.30;;
18574;SDS011;9417;16.484;102.872;2023-02-28T01:44:59;22.75;;;15.45;;
18574;SDS011;9417;16.484;102.872;2023-02-28T01:47:11;23.27;;;13.35;;
18574;SDS011;9417;16.484;102.872;2023-02-28T01:49:18;23.35;;;14.25;;
18574;SDS011;9417;16.484;102.872;2023-02-28T01:51:29;20.75;;;12.77;;
18574;SDS011;9417;16.484;102.872;2023-02-28T01:53:41;18.60;;;11.18;;
18574;SDS011;9417;16.484;102.872;2023-02-28T01:55:54;16.77;;;10.57;;
18574;SDS011;9417;16.484;102.872;2023-02-28T01:58:02;15.27;;;10.70;;
18574;SDS011;9417;16.484;102.872;2023-02-28T02:00:11;19.38;;;11.50;;
18574;SDS011;9417;16.484;102.872;2023-02-28T02:02:24;23.63;;;12.65;;
18574;SDS011;9417;16.484;102.872;2023-02-28T02:04:36;21.67;;;13.15;;
18574;SDS011;9417;16.484;102.872;2023-02-28T02:06:45;17.70;;;12.25;;
18574;SDS011;9417;16.484;102.872;2023-02-28T02:08:54;17.27;;;10.60;;
18574;SDS011;9417;16.484;102.872;2023-02-28T02:11:01;21.00;;;12.50;;
18574;SDS011;9417;16.484;102.872;2023-02-28T02:13:37;18.17;;;11.02;;
18574;SDS011;9417;16.484;102.872;2023-02-28T02:16:08;16.20;;;10.77;;
18574;SDS011;9417;16.484;102.872;2023-02-28T02:18:25;17.27;;;12.00;;
18574;SDS011;9417;16.484;102.872;2023-02-28T02:23:33;18.73;;;11.32;;
18574;SDS011;9417;16.484;102.872;2023-02-28T02:25:59;18.83;;;10.73;;
18574;SDS011;9417;16.484;102.872;2023-02-28T02:28:34;19.20;;;11.25;;
18574;SDS011;9417;16.484;102.872;2023-02-28T02:30:59;20.35;;;12.48;;
18574;SDS011;9417;16.484;102.872;2023-02-28T02:36:23;19.23;;;11.52;;
18574;SDS011;9417;16.484;102.872;2023-02-28T02:38:33;24.80;;;12.40;;
18574;SDS011;9417;16.484;102.872;2023-02-28T02:40:46;16.88;;;11.02;;
18574;SDS011;9417;16.484;102.872;2023-02-28T02:43:00;15.13;;;9.75;;
18574;SDS011;9417;16.484;102.872;2023-02-28T02:45:12;13.52;;;9.93;;
18574;SDS011;9417;16.484;102.872;2023-02-28T02:47:24;18.55;;;9.82;;
18574;SDS011;9417;16.484;102.872;2023-02-28T02:49:35;19.05;;;10.65;;
18574;SDS011;9417;16.484;102.872;2023-02-28T02:51:47;16.00;;;10.65;;
18574;SDS011;9417;16.484;102.872;2023-02-28T02:53:55;15.80;;;10.18;;
18574;SDS011;9417;16.484;102.872;2023-02-28T02:56:07;16.65;;;10.10;;
18574;SDS011;9417;16.484;102.872;2023-02-28T02:58:16;20.25;;;10.90;;
18574;SDS011;9417;16.484;102.872;2023-02-28T03:00:29;23.50;;;10.70;;
18574;SDS011;9417;16.484;102.872;2023-02-28T03:02:40;16.00;;;10.40;;
18574;SDS011;9417;16.484;102.872;2023-02-28T03:04:49;17.50;;;10.10;;
18574;SDS011;9417;16.484;102.872;2023-02-28T03:07:01;17.63;;;10.43;;
18574;SDS011;9417;16.484;102.872;2023-02-28T03:09:08;18.52;;;11.18;;
18574;SDS011;9417;16.484;102.872;2023-02-28T03:11:15;16.60;;;10.63;;
18574;SDS011;9417;16.484;102.872;2023-02-28T03:15:57;13.57;;;9.32;;
18574;SDS011;9417;16.484;102.872;2023-02-28T03:18:14;16.83;;;9.63;;
18574;SDS011;9417;16.484;102.872;2023-02-28T03:20:31;15.05;;;9.65;;
18574;SDS011;9417;16.484;102.872;2023-02-28T03:22:51;15.98;;;9.40;;
18574;SDS011;9417;16.484;102.872;2023-02-28T03:25:04;14.18;;;9.20;;
18574;SDS011;9417;16.484;102.872;2023-02-28T03:27:16;16.27;;;9.10;;
18574;SDS011;9417;16.484;102.872;2023-02-28T03:29:30;14.82;;;9.60;;
18574;SDS011;9417;16.484;102.872;2023-02-28T03:31:41;15.20;;;8.77;;
18574;SDS011;9417;16.484;102.872;2023-02-28T03:33:55;11.82;;;9.02;;
18574;SDS011;9417;16.484;102.872;2023-02-28T03:36:08;11.25;;;8.38;;
18574;SDS011;9417;16.484;102.872;2023-02-28T03:38:22;10.60;;;8.23;;
18574;SDS011;9417;16.484;102.872;2023-02-28T03:40:37;14.45;;;8.15;;
18574;SDS011;9417;16.484;102.872;2023-02-28T03:42:48;10.15;;;7.30;;
18574;SDS011;9417;16.484;102.872;2023-02-28T03:44:57;11.50;;;7.60;;
18574;SDS011;9417;16.484;102.872;2023-02-28T03:47:07;15.05;;;8.50;;
18574;SDS011;9417;16.484;102.872;2023-02-28T03:49:18;12.00;;;7.88;;
18574;SDS011;9417;16.484;102.872;2023-02-28T03:51:29;11.43;;;7.78;;
18574;SDS011;9417;16.484;102.872;2023-02-28T03:53:41;12.30;;;7.25;;
18574;SDS011;9417;16.484;102.872;2023-02-28T03:55:52;14.95;;;8.23;;
18574;SDS011;9417;16.484;102.872;2023-02-28T03:58:03;10.57;;;7.20;;
18574;SDS011;9417;16.484;102.872;2023-02-28T04:00:17;12.60;;;7.13;;
18574;SDS011;9417;16.484;102.872;2023-02-28T04:02:29;11.00;;;7.05;;
18574;SDS011;9417;16.484;102.872;2023-02-28T04:04:36;10.98;;;7.55;;
18574;SDS011;9417;16.484;102.872;2023-02-28T04:06:51;9.38;;;7.03;;
18574;SDS011;9417;16.484;102.872;2023-02-28T04:09:00;11.60;;;7.38;;
18574;SDS011;9417;16.484;102.872;2023-02-28T04:11:21;10.13;;;6.72;;
18574;SDS011;9417;16.484;102.872;2023-02-28T04:15:35;12.38;;;7.50;;
18574;SDS011;9417;16.484;102.872;2023-02-28T04:17:42;10.05;;;7.05;;
18574;SDS011;9417;16.484;102.872;2023-02-28T04:19:49;10.20;;;6.90;;
18574;SDS011;9417;16.484;102.872;2023-02-28T04:21:57;13.40;;;7.18;;
18574;SDS011;9417;16.484;102.872;2023-02-28T04:24:06;10.50;;;7.15;;
18574;SDS011;9417;16.484;102.872;2023-02-28T04:26:17;8.65;;;6.80;;
18574;SDS011;9417;16.484;102.872;2023-02-28T04:28:24;8.88;;;6.35;;
18574;SDS011;9417;16.484;102.872;2023-02-28T04:30:31;10.85;;;7.40;;
18574;SDS011;9417;16.484;102.872;2023-02-28T04:32:38;9.55;;;6.78;;
18574;SDS011;9417;16.484;102.872;2023-02-28T04:34:46;11.48;;;7.38;;
18574;SDS011;9417;16.484;102.872;2023-02-28T04:36:53;12.48;;;6.30;;
18574;SDS011;9417;16.484;102.872;2023-02-28T04:41:23;10.52;;;7.10;;
18574;SDS011;9417;16.484;102.872;2023-02-28T04:43:34;13.03;;;6.67;;
18574;SDS011;9417;16.484;102.872;2023-02-28T04:45:41;15.27;;;7.00;;
18574;SDS011;9417;16.484;102.872;2023-02-28T04:47:48;11.07;;;7.00;;
18574;SDS011;9417;16.484;102.872;2023-02-28T04:49:55;8.95;;;6.55;;
18574;SDS011;9417;16.484;102.872;2023-02-28T04:52:02;10.95;;;7.40;;
18574;SDS011;9417;16.484;102.872;2023-02-28T04:54:10;12.60;;;7.35;;
18574;SDS011;9417;16.484;102.872;2023-02-28T04:56:21;13.70;;;7.18;;
18574;SDS011;9417;16.484;102.872;2023-02-28T04:58:28;10.50;;;6.80;;
18574;SDS011;9417;16.484;102.872;2023-02-28T05:00:35;15.45;;;7.20;;
18574;SDS011;9417;16.484;102.872;2023-02-28T05:02:42;10.80;;;7.13;;
18574;SDS011;9417;16.484;102.872;2023-02-28T05:04:50;10.25;;;6.70;;
18574;SDS011;9417;16.484;102.872;2023-02-28T05:06:57;19.48;;;12.40;;
18574;SDS011;9417;16.484;102.872;2023-02-28T05:09:04;32.15;;;16.83;;
18574;SDS011;9417;16.484;102.872;2023-02-28T05:11:15;22.05;;;12.00;;
18574;SDS011;9417;16.484;102.872;2023-02-28T05:13:25;9.85;;;7.00;;
18574;SDS011;9417;16.484;102.872;2023-02-28T05:15:32;17.70;;;10.23;;
18574;SDS011;9417;16.484;102.872;2023-02-28T05:17:39;11.82;;;6.80;;
18574;SDS011;9417;16.484;102.872;2023-02-28T05:19:46;14.25;;;8.50;;
18574;SDS011;9417;16.484;102.872;2023-02-28T05:21:53;11.82;;;8.52;;
18574;SDS011;9417;16.484;102.872;2023-02-28T05:24:01;21.88;;;12.00;;
18574;SDS011;9417;16.484;102.872;2023-02-28T05:26:09;13.60;;;8.63;;
18574;SDS011;9417;16.484;102.872;2023-02-28T05:28:16;16.42;;;7.65;;
18574;SDS011;9417;16.484;102.872;2023-02-28T05:30:25;23.75;;;13.95;;
18574;SDS011;9417;16.484;102.872;2023-02-28T05:32:32;20.95;;;12.85;;
18574;SDS011;9417;16.484;102.872;2023-02-28T05:34:39;17.42;;;10.52;;
18574;SDS011;9417;16.484;102.872;2023-02-28T05:36:46;11.45;;;6.80;;
18574;SDS011;9417;16.484;102.872;2023-02-28T05:38:53;13.38;;;7.85;;
18574;SDS011;9417;16.484;102.872;2023-02-28T05:41:00;11.10;;;7.05;;
18574;SDS011;9417;16.484;102.872;2023-02-28T05:43:10;9.85;;;7.22;;
18574;SDS011;9417;16.484;102.872;2023-02-28T05:45:18;12.38;;;7.05;;
18574;SDS011;9417;16.484;102.872;2023-02-28T05:47:26;9.48;;;7.43;;
18574;SDS011;9417;16.484;102.872;2023-02-28T05:49:33;10.63;;;6.95;;
18574;SDS011;9417;16.484;102.872;2023-02-28T05:51:42;10.50;;;7.30;;
18574;SDS011;9417;16.484;102.872;2023-02-28T05:53:49;11.23;;;7.65;;
18574;SDS011;9417;16.484;102.872;2023-02-28T05:55:56;9.98;;;6.90;;
18574;SDS011;9417;16.484;102.872;2023-02-28T05:58:03;10.13;;;7.10;;
18574;SDS011;9417;16.484;102.872;2023-02-28T06:00:10;10.80;;;7.63;;
18574;SDS011;9417;16.484;102.872;2023-02-28T06:02:21;10.38;;;7.40;;
18574;SDS011;9417;16.484;102.872;2023-02-28T06:04:34;12.70;;;6.85;;
18574;SDS011;9417;16.484;102.872;2023-02-28T06:06:40;10.82;;;7.72;;
18574;SDS011;9417;16.484;102.872;2023-02-28T06:08:48;8.40;;;6.90;;
18574;SDS011;9417;16.484;102.872;2023-02-28T06:10:55;10.20;;;7.63;;
18574;SDS011;9417;16.484;102.872;2023-02-28T06:13:02;11.50;;;8.23;;
18574;SDS011;9417;16.484;102.872;2023-02-28T06:15:12;9.60;;;7.10;;
18574;SDS011;9417;16.484;102.872;2023-02-28T06:17:20;10.43;;;7.25;;
18574;SDS011;9417;16.484;102.872;2023-02-28T06:19:27;13.77;;;7.45;;
18574;SDS011;9417;16.484;102.872;2023-02-28T06:21:35;10.02;;;7.30;;
18574;SDS011;9417;16.484;102.872;2023-02-28T06:23:42;10.43;;;7.15;;
18574;SDS011;9417;16.484;102.872;2023-02-28T06:25:49;13.10;;;8.07;;
18574;SDS011;9417;16.484;102.872;2023-02-28T06:27:57;9.77;;;6.65;;
18574;SDS011;9417;16.484;102.872;2023-02-28T06:30:04;12.98;;;7.90;;
18574;SDS011;9417;16.484;102.872;2023-02-28T06:32:12;18.23;;;7.38;;
18574;SDS011;9417;16.484;102.872;2023-02-28T06:34:18;12.32;;;7.30;;
18574;SDS011;9417;16.484;102.872;2023-02-28T06:36:25;11.55;;;7.78;;
18574;SDS011;9417;16.484;102.872;2023-02-28T06:38:34;10.75;;;7.32;;
18574;SDS011;9417;16.484;102.872;2023-02-28T06:40:41;11.05;;;7.55;;
18574;SDS011;9417;16.484;102.872;2023-02-28T06:42:48;13.02;;;8.02;;
18574;SDS011;9417;16.484;102.872;2023-02-28T06:44:56;11.52;;;7.53;;
18574;SDS011;9417;16.484;102.872;2023-02-28T06:47:03;9.43;;;7.25;;
18574;SDS011;9417;16.484;102.872;2023-02-28T06:49:10;9.52;;;7.18;;
18574;SDS011;9417;16.484;102.872;2023-02-28T06:51:18;10.65;;;6.82;;
18574;SDS011;9417;16.484;102.872;2023-02-28T06:53:27;10.95;;;6.75;;
18574;SDS011;9417;16.484;102.872;2023-02-28T06:55:36;9.50;;;7.25;;
18574;SDS011;9417;16.484;102.872;2023-02-28T06:57:44;10.63;;;7.10;;
18574;SDS011;9417;16.484;102.872;2023-02-28T06:59:51;11.88;;;6.90;;
18574;SDS011;9417;16.484;102.872;2023-02-28T07:01:58;11.95;;;8.23;;
18574;SDS011;9417;16.484;102.872;2023-02-28T07:04:05;11.65;;;7.20;;
18574;SDS011;9417;16.484;102.872;2023-02-28T07:06:12;10.30;;;7.32;;
18574;SDS011;9417;16.484;102.872;2023-02-28T07:08:21;9.68;;;6.78;;
18574;SDS011;9417;16.484;102.872;2023-02-28T07:10:28;11.50;;;6.88;;
18574;SDS011;9417;16.484;102.872;2023-02-28T07:12:38;8.13;;;6.72;;
18574;SDS011;9417;16.484;102.872;2023-02-28T07:14:45;9.30;;;7.68;;
18574;SDS011;9417;16.484;102.872;2023-02-28T07:16:52;9.23;;;7.18;;
18574;SDS011;9417;16.484;102.872;2023-02-28T07:18:59;13.55;;;7.80;;
18574;SDS011;9417;16.484;102.872;2023-02-28T07:21:06;10.00;;;7.50;;
18574;SDS011;9417;16.484;102.872;2023-02-28T07:23:14;8.93;;;7.10;;
18574;SDS011;9417;16.484;102.872;2023-02-28T07:25:21;11.32;;;7.45;;
18574;SDS011;9417;16.484;102.872;2023-02-28T07:27:28;13.25;;;7.20;;
18574;SDS011;9417;16.484;102.872;2023-02-28T07:29:37;12.43;;;7.13;;
18574;SDS011;9417;16.484;102.872;2023-02-28T07:31:44;9.98;;;7.03;;
18574;SDS011;9417;16.484;102.872;2023-02-28T07:33:51;9.25;;;6.88;;
18574;SDS011;9417;16.484;102.872;2023-02-28T07:36:03;11.00;;;7.32;;
18574;SDS011;9417;16.484;102.872;2023-02-28T07:40:17;15.38;;;9.38;;
18574;SDS011;9417;16.484;102.872;2023-02-28T07:42:24;12.95;;;8.05;;
18574;SDS011;9417;16.484;102.872;2023-02-28T07:44:32;9.52;;;7.13;;
18574;SDS011;9417;16.484;102.872;2023-02-28T07:46:40;11.70;;;7.82;;
18574;SDS011;9417;16.484;102.872;2023-02-28T07:48:47;9.32;;;7.30;;
18574;SDS011;9417;16.484;102.872;2023-02-28T07:50:54;11.95;;;7.22;;
18574;SDS011;9417;16.484;102.872;2023-02-28T07:53:02;10.00;;;7.78;;
18574;SDS011;9417;16.484;102.872;2023-02-28T07:55:09;11.20;;;7.35;;
18574;SDS011;9417;16.484;102.872;2023-02-28T07:57:17;10.25;;;7.28;;
18574;SDS011;9417;16.484;102.872;2023-02-28T07:59:24;11.52;;;8.30;;
18574;SDS011;9417;16.484;102.872;2023-02-28T08:01:34;9.93;;;7.65;;
18574;SDS011;9417;16.484;102.872;2023-02-28T08:03:43;11.95;;;6.95;;
18574;SDS011;9417;16.484;102.872;2023-02-28T08:05:50;9.52;;;6.90;;
18574;SDS011;9417;16.484;102.872;2023-02-28T08:07:57;10.15;;;6.82;;
18574;SDS011;9417;16.484;102.872;2023-02-28T08:10:05;10.57;;;7.53;;
18574;SDS011;9417;16.484;102.872;2023-02-28T08:12:13;12.48;;;7.93;;
18574;SDS011;9417;16.484;102.872;2023-02-28T08:14:20;14.60;;;7.50;;
18574;SDS011;9417;16.484;102.872;2023-02-28T08:16:27;10.52;;;6.90;;
18574;SDS011;9417;16.484;102.872;2023-02-28T08:18:34;8.85;;;6.72;;
18574;SDS011;9417;16.484;102.872;2023-02-28T08:20:42;10.55;;;7.55;;
18574;SDS011;9417;16.484;102.872;2023-02-28T08:22:49;15.07;;;7.90;;
18574;SDS011;9417;16.484;102.872;2023-02-28T08:24:56;10.70;;;7.60;;
18574;SDS011;9417;16.484;102.872;2023-02-28T08:27:03;11.20;;;7.28;;
18574;SDS011;9417;16.484;102.872;2023-02-28T08:29:10;11.45;;;7.95;;
18574;SDS011;9417;16.484;102.872;2023-02-28T08:31:17;12.52;;;8.25;;
18574;SDS011;9417;16.484;102.872;2023-02-28T08:33:26;9.93;;;7.93;;
18574;SDS011;9417;16.484;102.872;2023-02-28T08:35:35;10.50;;;7.22;;
18574;SDS011;9417;16.484;102.872;2023-02-28T08:37:44;9.07;;;7.68;;
18574;SDS011;9417;16.484;102.872;2023-02-28T08:39:54;12.57;;;7.90;;
18574;SDS011;9417;16.484;102.872;2023-02-28T08:42:01;11.65;;;7.57;;
18574;SDS011;9417;16.484;102.872;2023-02-28T08:44:09;14.35;;;9.45;;
18574;SDS011;9417;16.484;102.872;2023-02-28T08:46:16;11.77;;;8.48;;
18574;SDS011;9417;16.484;102.872;2023-02-28T08:48:24;12.35;;;7.75;;
18574;SDS011;9417;16.484;102.872;2023-02-28T08:50:31;11.15;;;7.82;;
18574;SDS011;9417;16.484;102.872;2023-02-28T08:52:38;9.45;;;7.13;;
18574;SDS011;9417;16.484;102.872;2023-02-28T08:54:48;12.00;;;7.85;;
18574;SDS011;9417;16.484;102.872;2023-02-28T08:56:55;13.32;;;7.65;;
18574;SDS011;9417;16.484;102.872;2023-02-28T08:59:02;11.48;;;7.47;;
18574;SDS011;9417;16.484;102.872;2023-02-28T09:01:09;12.02;;;7.95;;
18574;SDS011;9417;16.484;102.872;2023-02-28T09:03:17;10.48;;;7.45;;
18574;SDS011;9417;16.484;102.872;2023-02-28T09:05:26;10.90;;;7.45;;
18574;SDS011;9417;16.484;102.872;2023-02-28T09:07:33;10.48;;;7.70;;
18574;SDS011;9417;16.484;102.872;2023-02-28T09:09:40;12.50;;;8.07;;
18574;SDS011;9417;16.484;102.872;2023-02-28T09:11:58;9.15;;;6.80;;
18574;SDS011;9417;16.484;102.872;2023-02-28T09:14:05;12.07;;;8.02;;
18574;SDS011;9417;16.484;102.872;2023-02-28T09:16:13;12.85;;;8.35;;
18574;SDS011;9417;16.484;102.872;2023-02-28T09:18:21;11.02;;;8.32;;
18574;SDS011;9417;16.484;102.872;2023-02-28T09:20:28;11.95;;;8.00;;
18574;SDS011;9417;16.484;102.872;2023-02-28T09:22:35;13.32;;;8.25;;
18574;SDS011;9417;16.484;102.872;2023-02-28T09:24:42;12.55;;;7.75;;
18574;SDS011;9417;16.484;102.872;2023-02-28T09:26:50;11.52;;;7.90;;
18574;SDS011;9417;16.484;102.872;2023-02-28T09:29:08;10.02;;;8.05;;
18574;SDS011;9417;16.484;102.872;2023-02-28T09:31:16;10.18;;;7.68;;
18574;SDS011;9417;16.484;102.872;2023-02-28T09:33:25;13.23;;;8.23;;
18574;SDS011;9417;16.484;102.872;2023-02-28T09:35:32;11.88;;;8.50;;
18574;SDS011;9417;16.484;102.872;2023-02-28T09:37:40;10.93;;;8.32;;
18574;SDS011;9417;16.484;102.872;2023-02-28T09:39:47;11.30;;;8.02;;
18574;SDS011;9417;16.484;102.872;2023-02-28T09:41:54;12.50;;;8.32;;
18574;SDS011;9417;16.484;102.872;2023-02-28T09:44:02;11.45;;;7.90;;
18574;SDS011;9417;16.484;102.872;2023-02-28T09:46:18;12.55;;;9.20;;
18574;SDS011;9417;16.484;102.872;2023-02-28T09:48:37;12.75;;;8.40;;
18574;SDS011;9417;16.484;102.872;2023-02-28T09:50:50;14.40;;;8.80;;
18574;SDS011;9417;16.484;102.872;2023-02-28T09:52:59;11.52;;;8.30;;
18574;SDS011;9417;16.484;102.872;2023-02-28T09:55:15;14.02;;;8.55;;
18574;SDS011;9417;16.484;102.872;2023-02-28T09:57:29;11.80;;;8.40;;
18574;SDS011;9417;16.484;102.872;2023-02-28T09:59:46;12.98;;;8.30;;
18574;SDS011;9417;16.484;102.872;2023-02-28T10:02:21;12.50;;;9.05;;
18574;SDS011;9417;16.484;102.872;2023-02-28T10:04:56;13.15;;;8.43;;
18574;SDS011;9417;16.484;102.872;2023-02-28T10:07:05;13.95;;;8.48;;
18574;SDS011;9417;16.484;102.872;2023-02-28T10:09:39;12.77;;;8.32;;
18574;SDS011;9417;16.484;102.872;2023-02-28T10:11:46;11.75;;;8.13;;
18574;SDS011;9417;16.484;102.872;2023-02-28T10:13:59;10.95;;;8.35;;
18574;SDS011;9417;16.484;102.872;2023-02-28T10:18:23;15.43;;;8.75;;
18574;SDS011;9417;16.484;102.872;2023-02-28T10:20:33;11.00;;;8.55;;
18574;SDS011;9417;16.484;102.872;2023-02-28T10:22:44;11.80;;;8.10;;
18574;SDS011;9417;16.484;102.872;2023-02-28T10:24:59;14.70;;;8.90;;
18574;SDS011;9417;16.484;102.872;2023-02-28T10:27:13;12.48;;;8.88;;
18574;SDS011;9417;16.484;102.872;2023-02-28T10:29:21;11.23;;;8.68;;
18574;SDS011;9417;16.484;102.872;2023-02-28T10:31:28;11.55;;;8.40;;
18574;SDS011;9417;16.484;102.872;2023-02-28T10:33:37;12.95;;;8.18;;
18574;SDS011;9417;16.484;102.872;2023-02-28T10:35:44;11.30;;;8.60;;
18574;SDS011;9417;16.484;102.872;2023-02-28T10:37:53;13.05;;;8.68;;
18574;SDS011;9417;16.484;102.872;2023-02-28T10:40:03;13.60;;;8.73;;
18574;SDS011;9417;16.484;102.872;2023-02-28T10:42:22;11.77;;;8.25;;
18574;SDS011;9417;16.484;102.872;2023-02-28T10:44:30;11.90;;;8.48;;
18574;SDS011;9417;16.484;102.872;2023-02-28T10:46:38;10.32;;;8.23;;
18574;SDS011;9417;16.484;102.872;2023-02-28T10:48:49;12.05;;;8.65;;
18574;SDS011;9417;16.484;102.872;2023-02-28T10:51:07;11.00;;;8.23;;
18574;SDS011;9417;16.484;102.872;2023-02-28T10:56:04;12.77;;;8.75;;
18574;SDS011;9417;16.484;102.872;2023-02-28T10:58:23;14.32;;;8.85;;
18574;SDS011;9417;16.484;102.872;2023-02-28T11:00:32;9.73;;;8.07;;
18574;SDS011;9417;16.484;102.872;2023-02-28T11:02:40;12.40;;;8.50;;
18574;SDS011;9417;16.484;102.872;2023-02-28T11:04:50;13.40;;;9.32;;
18574;SDS011;9417;16.484;102.872;2023-02-28T11:06:57;29.83;;;8.60;;
18574;SDS011;9417;16.484;102.872;2023-02-28T11:09:06;15.50;;;9.63;;
18574;SDS011;9417;16.484;102.872;2023-02-28T11:11:26;13.48;;;9.10;;
18574;SDS011;9417;16.484;102.872;2023-02-28T11:13:36;16.80;;;9.40;;
18574;SDS011;9417;16.484;102.872;2023-02-28T11:15:43;15.27;;;9.15;;
18574;SDS011;9417;16.484;102.872;2023-02-28T11:17:58;16.90;;;9.68;;
18574;SDS011;9417;16.484;102.872;2023-02-28T11:20:14;11.13;;;8.10;;
18574;SDS011;9417;16.484;102.872;2023-02-28T11:22:27;13.50;;;8.70;;
18574;SDS011;9417;16.484;102.872;2023-02-28T11:24:40;13.45;;;8.70;;
18574;SDS011;9417;16.484;102.872;2023-02-28T11:26:50;16.25;;;8.75;;
18574;SDS011;9417;16.484;102.872;2023-02-28T11:29:02;14.45;;;8.63;;
18574;SDS011;9417;16.484;102.872;2023-02-28T11:31:16;14.93;;;9.27;;
18574;SDS011;9417;16.484;102.872;2023-02-28T11:33:27;17.77;;;8.63;;
18574;SDS011;9417;16.484;102.872;2023-02-28T11:35:38;14.50;;;8.95;;
18574;SDS011;9417;16.484;102.872;2023-02-28T11:37:46;18.13;;;9.70;;
18574;SDS011;9417;16.484;102.872;2023-02-28T11:39:53;13.32;;;9.45;;
18574;SDS011;9417;16.484;102.872;2023-02-28T11:44:53;18.25;;;10.10;;
18574;SDS011;9417;16.484;102.872;2023-02-28T11:47:24;22.35;;;10.07;;
18574;SDS011;9417;16.484;102.872;2023-02-28T11:49:41;23.13;;;10.60;;
18574;SDS011;9417;16.484;102.872;2023-02-28T11:51:56;21.08;;;11.50;;
18574;SDS011;9417;16.484;102.872;2023-02-28T11:54:11;16.88;;;10.98;;
18574;SDS011;9417;16.484;102.872;2023-02-28T11:56:37;18.13;;;11.18;;
18574;SDS011;9417;16.484;102.872;2023-02-28T11:58:50;16.45;;;11.40;;
18574;SDS011;9417;16.484;102.872;2023-02-28T12:01:09;25.25;;;14.10;;
18574;SDS011;9417;16.484;102.872;2023-02-28T12:03:27;30.17;;;14.23;;
18574;SDS011;9417;16.484;102.872;2023-02-28T12:05:43;19.83;;;14.13;;
18574;SDS011;9417;16.484;102.872;2023-02-28T12:07:57;23.77;;;13.88;;
18574;SDS011;9417;16.484;102.872;2023-02-28T12:10:11;25.23;;;14.65;;
18574;SDS011;9417;16.484;102.872;2023-02-28T12:12:33;26.92;;;14.55;;
18574;SDS011;9417;16.484;102.872;2023-02-28T12:14:50;22.05;;;13.90;;
18574;SDS011;9417;16.484;102.872;2023-02-28T12:17:13;20.85;;;13.52;;
18574;SDS011;9417;16.484;102.872;2023-02-28T12:19:28;22.90;;;13.73;;
18574;SDS011;9417;16.484;102.872;2023-02-28T12:22:00;21.00;;;13.07;;
18574;SDS011;9417;16.484;102.872;2023-02-28T12:24:37;20.27;;;14.10;;
18574;SDS011;9417;16.484;102.872;2023-02-28T12:26:55;25.92;;;14.73;;
18574;SDS011;9417;16.484;102.872;2023-02-28T12:29:10;21.67;;;12.63;;
18574;SDS011;9417;16.484;102.872;2023-02-28T12:31:23;29.30;;;15.43;;
18574;SDS011;9417;16.484;102.872;2023-02-28T12:33:35;20.92;;;12.60;;
18574;SDS011;9417;16.484;102.872;2023-02-28T12:35:47;17.45;;;12.02;;
18574;SDS011;9417;16.484;102.872;2023-02-28T12:37:59;25.35;;;14.82;;
18574;SDS011;9417;16.484;102.872;2023-02-28T12:40:13;22.60;;;14.18;;
18574;SDS011;9417;16.484;102.872;2023-02-28T12:42:25;26.70;;;15.13;;
18574;SDS011;9417;16.484;102.872;2023-02-28T12:44:36;26.30;;;15.77;;
18574;SDS011;9417;16.484;102.872;2023-02-28T12:46:50;28.70;;;17.05;;
18574;SDS011;9417;16.484;102.872;2023-02-28T12:49:00;23.90;;;15.73;;
18574;SDS011;9417;16.484;102.872;2023-02-28T12:51:13;32.47;;;19.40;;
18574;SDS011;9417;16.484;102.872;2023-02-28T12:53:23;30.83;;;17.88;;
18574;SDS011;9417;16.484;102.872;2023-02-28T12:55:38;29.17;;;17.80;;
18574;SDS011;9417;16.484;102.872;2023-02-28T12:57:49;27.65;;;16.02;;
18574;SDS011;9417;16.484;102.872;2023-02-28T13:00:02;29.52;;;18.13;;
18574;SDS011;9417;16.484;102.872;2023-02-28T13:02:18;31.27;;;16.90;;